Blue Grass Airport
KLEX : now visible

Airfield :











YOU CAN JOIN US ON...

 
LOGIN :

Register | Disclaimer

   EN    FR    IT 

 









Legend :    VFR   Marginal VFR   IFR   Intensive IFR   Very Intensive IFR
Visi :
Ceiling :
>= 8 km
>= 3000ft
5 to 8 km
1000 to 3000 ft
1500m to 5 km
500 to 1000 ft
800 to 1500m
200 to 500 ft
< 800m
< 200 ft
Symbols :   Thunderstorms  Fog  Heavy snow  Heavy precipitations  Wind > 20 kt






- Airport Elevation : 979 ft
- IATA code : LEX


KLEX - Blue Grass

CURRENT METAR :
  • 021254Z 17009KT 10SM BKN100 OVC120 04/M06 A3032 RMK AO2 SLP273 T00391056

EXPIRED METARs :
  • 021154Z 16008KT 10SM BKN100 02/M06 A3031 RMK AO2 SLP271 T00221061 10022 21011 58000 $
  • 021054Z 15009KT 10SM BKN110 01/M07 A3031 RMK AO2 SLP272 T00111067 $

TAF KLEX
Valid from the 02 at 12:00 until the 03 at 12:00 UTC


021120Z 0212/0312 15008KT P6SM OVC100
FM021500 19015G25KT P6SM OVC080
FM030100 19019G29KT P6SM SHRA OVC050
KZID FIR / North America



MET'MAP, your aeronautical weather chart ! - Copyright ORBIFLY December 2007 - Disclaimer

ORBIFLY MET'MAP TEAM :

Programming & Development : Alexandra Zaïnal
Original concept : Baudouin d'Aumeries
Technical & hardware support : Manuel Goepfert
Assistance : Marc-Olivier Méhu




SOURCES & CREDITS :

   NOAA       Earth
Advisory